Time;durP1;ratioP1;P1;durP2;ratioP2;P2;SDS_P1;SDS_P2;PMS_P1;PMS_P2;Temp;Humidity;BMP_temperature;BMP_pressure;BME280_temperature;BME280_humidity;BME280_pressure;Samples;Min_cycle;Max_cycle;Signal;HPM_P1;HPM_P2
2022/07/16 00:01:23;;;;;;;6.75;2.38;;;18.80;74.60;;;;;;4971996;28;20159;-84
2022/07/16 00:03:54;;;;;;;5.18;2.00;;;18.80;74.50;;;;;;4971084;28;20090;-85
2022/07/16 00:06:21;;;;;;;4.07;2.10;;;18.80;73.60;;;;;;4972363;28;20015;-84
2022/07/16 00:08:47;;;;;;;2.80;1.90;;;18.80;73.60;;;;;;4972483;28;20031;-92
2022/07/16 00:11:13;;;;;;;5.05;2.15;;;18.90;73.40;;;;;;4971301;28;20506;-92
2022/07/16 00:13:39;;;;;;;8.50;2.10;;;18.90;74.80;;;;;;4972358;28;20098;-92
2022/07/16 00:16:10;;;;;;;7.00;2.20;;;18.80;74.20;;;;;;4972206;28;20037;-89
2022/07/16 00:21:21;;;;;;;4.70;2.30;;;18.70;75.50;;;;;;4971154;28;20089;-84
2022/07/16 00:23:47;;;;;;;6.00;2.30;;;18.70;76.20;;;;;;4972119;28;20483;-88
2022/07/16 00:26:12;;;;;;;5.95;1.98;;;18.70;75.50;;;;;;4970014;28;20085;-86
2022/07/16 00:28:38;;;;;;;8.23;2.10;;;18.80;75.30;;;;;;4972065;28;20081;-84
2022/07/16 00:31:04;;;;;;;5.95;1.95;;;18.60;74.40;;;;;;4972083;28;20078;-94
2022/07/16 00:33:30;;;;;;;3.67;1.92;;;18.60;75.60;;;;;;4971501;28;20408;-92
2022/07/16 00:35:55;;;;;;;7.40;2.40;;;18.60;75.10;;;;;;4971663;28;20110;-92
2022/07/16 00:38:21;;;;;;;8.02;2.30;;;18.60;74.70;;;;;;4971485;28;20411;-84
2022/07/16 00:40:47;;;;;;;4.35;2.17;;;18.50;76.40;;;;;;4972357;28;20027;-85
2022/07/16 00:43:13;;;;;;;5.88;2.28;;;18.50;75.80;;;;;;4971789;28;20037;-85
2022/07/16 00:45:40;;;;;;;5.47;2.45;;;18.40;75.10;;;;;;4971331;28;20019;-90
2022/07/16 00:48:07;;;;;;;6.35;2.15;;;18.40;75.10;;;;;;4971649;28;20533;-86
2022/07/16 00:50:34;;;;;;;6.35;2.40;;;18.40;77.40;;;;;;4971557;28;20423;-89
2022/07/16 00:53:01;;;;;;;5.07;2.37;;;18.30;76.20;;;;;;4971633;28;20472;-91
2022/07/16 00:55:27;;;;;;;4.43;2.22;;;18.20;76.10;;;;;;4987622;28;20022;-85
2022/07/16 00:57:54;;;;;;;4.60;2.28;;;18.20;77.00;;;;;;4991630;28;20010;-85
2022/07/16 01:00:20;;;;;;;4.53;2.13;;;18.20;76.60;;;;;;4990199;28;20023;-84
2022/07/16 01:02:45;;;;;;;6.15;2.33;;;18.30;78.40;;;;;;4988589;28;20393;-84
2022/07/16 01:05:11;;;;;;;4.32;2.17;;;18.30;77.20;;;;;;4979122;28;20019;-93
2022/07/16 01:07:37;;;;;;;7.93;2.47;;;18.20;77.40;;;;;;4971198;28;20031;-84
2022/07/16 01:10:04;;;;;;;5.63;2.20;;;18.10;77.50;;;;;;4971350;28;20095;-92
2022/07/16 01:12:30;;;;;;;4.75;2.47;;;18.10;79.30;;;;;;4971268;28;20033;-94
2022/07/16 01:14:57;;;;;;;5.00;2.42;;;18.00;77.60;;;;;;4970247;28;20026;-85
2022/07/16 01:17:24;;;;;;;4.85;2.53;;;18.00;81.70;;;;;;4971735;28;20031;-85
2022/07/16 01:19:50;;;;;;;6.15;2.45;;;18.00;79.30;;;;;;4971781;28;20027;-84
2022/07/16 01:22:20;;;;;;;5.28;2.30;;;18.00;79.60;;;;;;4970308;28;20061;-93
2022/07/16 01:24:46;;;;;;;7.70;2.50;;;18.10;80.20;;;;;;4970675;28;20054;-83
2022/07/16 01:27:12;;;;;;;3.70;2.13;;;18.00;81.30;;;;;;4970696;28;20031;-84
2022/07/16 01:29:38;;;;;;;5.10;2.42;;;18.00;80.80;;;;;;4970577;28;20023;-92
2022/07/16 01:32:04;;;;;;;5.28;2.72;;;17.90;82.80;;;;;;4970645;28;20063;-84
2022/07/16 01:34:29;;;;;;;5.70;2.40;;;17.90;83.00;;;;;;4971118;28;20027;-93
2022/07/16 01:37:01;;;;;;;5.45;2.55;;;17.90;80.50;;;;;;4970476;28;20195;-85
2022/07/16 01:39:30;;;;;;;8.43;2.33;;;17.90;80.90;;;;;;4969441;28;20399;-93
2022/07/16 01:41:58;;;;;;;9.70;2.55;;;17.80;81.10;;;;;;4970581;28;20162;-89
2022/07/16 01:44:25;;;;;;;;;;;17.80;82.90;;;;;;4971809;28;20038;-88
2022/07/16 01:46:55;;;;;;;6.00;2.40;;;17.80;81.90;;;;;;4970627;28;19997;-92
2022/07/16 01:49:21;;;;;;;7.25;2.33;;;17.70;82.60;;;;;;4971594;28;20034;-92
2022/07/16 01:51:47;;;;;;;9.10;2.17;;;17.70;85.80;;;;;;4971085;28;20026;-92
2022/07/16 01:54:13;;;;;;;3.67;2.60;;;17.70;83.80;;;;;;4969968;28;20483;-94
2022/07/16 01:56:39;;;;;;;5.43;2.22;;;17.60;84.20;;;;;;4970898;28;20073;-91
2022/07/16 01:59:05;;;;;;;6.22;2.47;;;17.60;84.90;;;;;;4970816;28;20031;-92
2022/07/16 02:01:30;;;;;;;5.18;2.30;;;17.60;85.80;;;;;;4970553;28;20047;-93
2022/07/16 02:03:56;;;;;;;4.47;2.30;;;17.50;87.60;;;;;;4970501;28;20038;-84
2022/07/16 02:06:22;;;;;;;8.57;2.78;;;17.50;86.30;;;;;;4971448;28;20046;-84
2022/07/16 02:08:47;;;;;;;4.47;2.13;;;17.50;86.80;;;;;;4970015;28;20077;-88
2022/07/16 02:11:13;;;;;;;10.50;2.72;;;17.50;85.70;;;;;;4969885;28;20093;-84
2022/07/16 02:13:39;;;;;;;6.85;2.30;;;17.50;86.90;;;;;;4968646;28;20372;-85
2022/07/16 02:16:05;;;;;;;3.95;2.20;;;17.50;88.00;;;;;;4970474;28;20081;-93
2022/07/16 02:18:31;;;;;;;6.22;2.30;;;17.50;85.70;;;;;;4968447;28;20027;-93
2022/07/16 02:20:57;;;;;;;3.95;2.30;;;17.50;85.60;;;;;;4969953;28;20031;-84
2022/07/16 02:23:23;;;;;;;9.75;2.80;;;17.60;85.30;;;;;;4970942;28;20037;-93
2022/07/16 02:25:49;;;;;;;5.43;2.45;;;17.60;85.60;;;;;;4969547;28;20019;-84
2022/07/16 02:28:14;;;;;;;2.90;1.80;;;17.60;84.60;;;;;;4969933;28;20027;-91
2022/07/16 02:30:46;;;;;;;4.55;2.17;;;17.50;84.10;;;;;;4970265;28;20023;-84
2022/07/16 02:33:15;;;;;;;12.73;2.50;;;17.50;83.50;;;;;;4969949;28;20050;-88
2022/07/16 02:35:41;;;;;;;5.28;2.30;;;17.40;84.20;;;;;;4973722;28;20030;-85
2022/07/16 02:38:08;;;;;;;6.72;2.50;;;17.50;84.30;;;;;;4971979;28;20030;-92
2022/07/16 02:40:34;;;;;;;6.43;2.40;;;17.50;86.50;;;;;;4977842;28;20034;-86
2022/07/16 02:43:02;;;;;;;5.22;2.10;;;17.40;86.00;;;;;;4995916;28;20106;-87
2022/07/16 02:45:28;;;;;;;6.65;2.30;;;17.40;86.40;;;;;;4976731;28;20030;-85
2022/07/16 02:47:54;;;;;;;6.65;2.40;;;17.40;87.10;;;;;;4996933;28;20030;-92
2022/07/16 02:50:21;;;;;;;5.25;2.58;;;17.30;86.00;;;;;;4979616;28;20097;-94
2022/07/16 02:52:47;;;;;;;6.53;2.85;;;17.30;87.10;;;;;;4974522;28;20102;-94
2022/07/16 02:55:13;;;;;;;5.18;2.17;;;17.20;87.00;;;;;;4974394;28;20027;-90
2022/07/16 02:57:39;;;;;;;6.10;2.28;;;17.10;86.30;;;;;;4974158;28;20023;-94
2022/07/16 03:00:07;;;;;;;4.43;2.20;;;17.00;87.40;;;;;;4992105;28;20027;-93
2022/07/16 03:02:33;;;;;;;;;;;17.00;88.70;;;;;;4994347;28;20050;-84
2022/07/16 03:04:59;;;;;;;4.72;2.38;;;16.90;88.20;;;;;;4993663;28;20378;-83
2022/07/16 03:07:25;;;;;;;4.32;2.50;;;16.80;89.10;;;;;;4975061;28;20027;-85
2022/07/16 03:09:51;;;;;;;4.45;2.63;;;16.70;90.30;;;;;;4978879;28;20038;-94
2022/07/16 03:12:18;;;;;;;3.83;2.45;;;16.60;90.40;;;;;;4974875;28;20407;-85
2022/07/16 03:14:44;;;;;;;3.90;2.30;;;16.50;91.50;;;;;;4972888;28;20070;-93
2022/07/16 03:17:10;;;;;;;6.57;2.55;;;16.50;92.40;;;;;;4973360;28;20383;-94
2022/07/16 03:19:36;;;;;;;4.15;2.63;;;16.60;94.80;;;;;;4973980;28;20038;-93
2022/07/16 03:22:01;;;;;;;7.43;3.00;;;16.60;95.20;;;;;;4972778;28;20034;-85
2022/07/16 03:24:28;;;;;;;5.10;2.80;;;16.50;97.00;;;;;;4972975;28;20117;-86
2022/07/16 03:26:54;;;;;;;6.63;3.03;;;16.40;95.00;;;;;;4973780;28;20019;-93
2022/07/16 03:29:19;;;;;;;4.43;2.65;;;16.40;96.80;;;;;;4972671;28;20310;-91
2022/07/16 03:31:45;;;;;;;6.28;3.28;;;16.30;96.90;;;;;;4972156;28;20073;-83
2022/07/16 03:34:11;;;;;;;4.35;2.95;;;16.30;97.50;;;;;;4972615;28;20076;-92
2022/07/16 03:36:37;;;;;;;5.55;3.10;;;16.10;96.10;;;;;;4981753;28;20102;-84
2022/07/16 03:39:05;;;;;;;6.50;2.55;;;16.00;97.10;;;;;;4973569;28;20029;-93
2022/07/16 03:41:35;;;;;;;7.35;3.08;;;16.00;96.50;;;;;;4981142;28;20027;-84
2022/07/16 03:44:03;;;;;;;5.78;2.70;;;16.00;99.90;;;;;;4975895;28;20065;-85
2022/07/16 03:46:29;;;;;;;7.22;2.72;;;16.00;99.90;;;;;;4994717;28;20023;-84
2022/07/16 03:48:55;;;;;;;4.05;2.72;;;16.10;98.00;;;;;;4990520;28;20066;-93
2022/07/16 03:51:21;;;;;;;7.03;2.70;;;16.10;98.10;;;;;;4973271;28;20019;-89
2022/07/16 03:53:47;;;;;;;5.80;3.08;;;15.90;98.40;;;;;;4975860;28;20034;-93
2022/07/16 03:56:13;;;;;;;5.55;2.72;;;15.80;99.40;;;;;;4964144;28;20027;-91
2022/07/16 03:58:39;;;;;;;4.75;2.80;;;15.80;98.20;;;;;;4954366;29;20150;-91
2022/07/16 04:01:05;;;;;;;4.22;2.60;;;15.80;99.90;;;;;;4953901;29;20479;-94
2022/07/16 04:03:32;;;;;;;6.35;3.33;;;15.90;99.90;;;;;;4954185;28;20494;-87
2022/07/16 04:05:58;;;;;;;3.97;2.63;;;15.90;99.90;;;;;;4954230;28;20626;-94
2022/07/16 04:08:24;;;;;;;7.25;3.05;;;15.80;99.90;;;;;;4953850;28;20102;-85
2022/07/16 04:10:49;;;;;;;7.88;3.13;;;15.70;99.90;;;;;;4953516;29;20027;-85
2022/07/16 04:13:15;;;;;;;7.00;3.28;;;15.70;99.90;;;;;;4952825;29;20038;-94
2022/07/16 04:15:41;;;;;;;4.10;2.92;;;15.60;99.90;;;;;;4953179;29;20151;-88
2022/07/16 04:18:06;;;;;;;7.45;3.22;;;15.70;99.90;;;;;;4952510;29;20027;-93
2022/07/16 04:20:32;;;;;;;8.88;3.20;;;15.70;99.90;;;;;;4952767;29;20495;-84
2022/07/16 04:22:58;;;;;;;4.72;2.75;;;15.50;99.90;;;;;;4953487;28;20035;-85
2022/07/16 04:25:24;;;;;;;7.28;3.00;;;15.50;99.90;;;;;;4952550;29;20439;-85
2022/07/16 04:27:49;;;;;;;5.63;2.75;;;15.50;99.90;;;;;;4952116;29;20031;-85
2022/07/16 04:30:15;;;;;;;5.95;2.80;;;15.50;99.90;;;;;;4951935;29;20131;-85
2022/07/16 04:32:41;;;;;;;7.22;2.97;;;15.60;99.90;;;;;;4952453;28;20114;-85
2022/07/16 04:35:10;;;;;;;4.20;2.85;;;15.60;99.90;;;;;;4952079;28;20027;-85
2022/07/16 04:37:35;;;;;;;;;;;15.60;99.90;;;;;;4953543;28;20566;-86
2022/07/16 04:40:03;;;;;;;6.18;3.15;;;15.70;99.90;;;;;;4953193;28;19907;-86
2022/07/16 04:42:29;;;;;;;5.55;2.55;;;15.70;99.90;;;;;;4958831;28;20103;-88
2022/07/16 04:44:55;;;;;;;5.05;2.70;;;15.70;99.90;;;;;;4996216;28;20038;-87
2022/07/16 04:47:21;;;;;;;5.38;2.60;;;15.70;99.90;;;;;;5007166;28;20027;-87
2022/07/16 04:49:46;;;;;;;6.25;2.90;;;15.70;99.90;;;;;;4993934;28;20035;-86
2022/07/16 04:52:13;;;;;;;9.43;2.90;;;;;;;;;;4990938;28;20027;-85
2022/07/16 04:54:38;;;;;;;7.60;2.90;;;15.60;99.90;;;;;;4971680;28;20031;-93
2022/07/16 04:57:04;;;;;;;5.40;2.90;;;15.50;99.90;;;;;;4970901;28;20388;-86
2022/07/16 04:59:30;;;;;;;4.65;2.70;;;15.40;99.90;;;;;;4972002;28;20023;-95
2022/07/16 05:02:56;;;;;;;5.78;2.97;;;15.40;99.90;;;;;;4979093;28;20023;-88
2022/07/16 05:04:41;;;;;;;6.65;3.10;;;15.40;99.90;;;;;;4970990;28;20078;-91
2022/07/16 05:07:07;;;;;;;3.60;2.80;;;15.50;99.90;;;;;;4972740;28;20062;-84
2022/07/16 05:09:32;;;;;;;6.82;2.92;;;15.70;99.90;;;;;;4972735;28;20030;-91
2022/07/16 05:11:58;;;;;;;5.82;2.60;;;15.70;99.90;;;;;;4970989;28;20022;-90
2022/07/16 05:14:26;;;;;;;4.90;2.83;;;15.70;99.90;;;;;;4991263;28;20023;-95
2022/07/16 05:16:54;;;;;;;6.45;2.90;;;15.60;99.90;;;;;;4981992;28;20086;-91
2022/07/16 05:19:20;;;;;;;8.98;3.13;;;15.60;99.90;;;;;;4972175;28;20015;-90
2022/07/16 05:21:45;;;;;;;4.47;2.60;;;15.50;99.90;;;;;;4974897;28;20066;-96
2022/07/16 05:24:11;;;;;;;7.70;3.15;;;15.60;99.90;;;;;;4993362;28;20027;-90
2022/07/16 05:26:37;;;;;;;6.50;2.97;;;15.60;99.90;;;;;;4970464;28;20499;-90
2022/07/16 05:29:03;;;;;;;6.18;2.80;;;15.70;99.90;;;;;;4965104;28;20065;-82
2022/07/16 05:31:28;;;;;;;5.40;2.78;;;15.70;99.90;;;;;;4951867;29;20480;-90
2022/07/16 05:33:54;;;;;;;6.20;2.85;;;15.80;99.90;;;;;;4961957;28;20023;-85
2022/07/16 05:36:20;;;;;;;8.00;2.90;;;15.80;99.90;;;;;;4950563;28;20395;-87
2022/07/16 05:38:46;;;;;;;6.75;2.80;;;15.70;99.90;;;;;;4951255;28;20030;-84
2022/07/16 05:41:11;;;;;;;8.07;2.95;;;15.80;99.90;;;;;;4951126;28;20028;-84
2022/07/16 05:43:37;;;;;;;6.20;2.70;;;15.80;99.90;;;;;;4958581;28;20066;-84
2022/07/16 05:46:03;;;;;;;7.55;2.92;;;15.80;99.90;;;;;;4971250;28;20109;-88
2022/07/16 05:48:29;;;;;;;4.93;2.70;;;15.80;99.90;;;;;;4968634;28;20034;-89
2022/07/16 05:50:55;;;;;;;8.82;2.88;;;15.80;99.90;;;;;;4954751;28;20678;-84
2022/07/16 05:53:21;;;;;;;9.32;2.78;;;15.80;99.90;;;;;;4969820;28;20497;-90
2022/07/16 05:55:47;;;;;;;4.38;2.30;;;15.80;99.90;;;;;;4968890;28;20039;-89
2022/07/16 05:58:13;;;;;;;8.50;2.80;;;15.90;99.90;;;;;;4980462;28;20054;-87
2022/07/16 06:00:38;;;;;;;4.18;2.78;;;16.00;99.90;;;;;;4965730;28;20027;-88
2022/07/16 06:03:05;;;;;;;7.97;2.80;;;16.10;99.90;;;;;;4958023;28;20039;-89
2022/07/16 06:05:31;;;;;;;6.80;3.05;;;16.10;99.90;;;;;;4951128;28;20027;-88
2022/07/16 06:07:57;;;;;;;4.93;2.70;;;16.20;99.90;;;;;;4968590;28;20034;-86
2022/07/16 06:10:22;;;;;;;7.88;2.72;;;16.30;99.90;;;;;;4971918;28;20139;-84
2022/07/16 06:12:48;;;;;;;7.25;2.55;;;16.40;99.90;;;;;;4967427;28;20054;-86
2022/07/16 06:15:14;;;;;;;6.32;2.60;;;16.40;99.90;;;;;;4965429;28;20035;-88
2022/07/16 06:17:40;;;;;;;8.05;2.92;;;16.50;99.90;;;;;;4963736;28;20106;-88
2022/07/16 06:20:07;;;;;;;5.53;2.60;;;16.60;99.90;;;;;;4966515;28;20042;-88
2022/07/16 06:22:33;;;;;;;8.13;2.20;;;16.70;99.90;;;;;;4962792;28;20412;-85
2022/07/16 06:24:58;;;;;;;8.60;2.53;;;16.80;99.90;;;;;;4972339;28;20355;-93
2022/07/16 06:27:24;;;;;;;5.38;2.60;;;16.80;99.90;;;;;;4993097;28;20015;-92
2022/07/16 06:29:50;;;;;;;4.82;2.13;;;16.90;99.90;;;;;;4985169;28;20023;-91
2022/07/16 06:32:15;;;;;;;5.82;2.30;;;17.00;99.90;;;;;;4993860;28;20058;-91
2022/07/16 06:34:41;;;;;;;8.95;2.50;;;17.00;99.90;;;;;;4979726;28;20030;-83
2022/07/16 06:37:07;;;;;;;4.68;2.75;;;17.10;99.90;;;;;;4970236;28;20039;-87
2022/07/16 06:39:32;;;;;;;6.55;2.10;;;17.20;99.90;;;;;;4972034;28;20032;-92
2022/07/16 06:41:59;;;;;;;3.97;2.10;;;17.20;99.90;;;;;;4985490;28;20034;-90
2022/07/16 06:44:26;;;;;;;5.72;2.17;;;17.30;99.90;;;;;;4972641;28;20127;-88
2022/07/16 06:46:52;;;;;;;3.33;2.17;;;17.40;99.90;;;;;;4966905;28;20026;-84
2022/07/16 06:49:18;;;;;;;2.28;1.90;;;17.50;99.90;;;;;;4971772;28;20027;-83
2022/07/16 06:51:44;;;;;;;3.97;2.20;;;17.60;99.90;;;;;;4971383;28;20026;-88
2022/07/16 06:54:10;;;;;;;3.95;1.92;;;17.70;99.90;;;;;;4970034;28;20030;-85
2022/07/16 06:56:35;;;;;;;5.80;2.22;;;17.80;99.90;;;;;;4973486;28;20034;-90
2022/07/16 06:59:01;;;;;;;5.50;2.10;;;17.80;99.90;;;;;;4987805;28;20439;-91
2022/07/16 07:01:27;;;;;;;5.65;2.00;;;18.00;98.50;;;;;;4972323;28;20035;-88
2022/07/16 07:03:52;;;;;;;7.10;2.08;;;18.00;99.00;;;;;;4987035;28;20102;-85
2022/07/16 07:06:18;;;;;;;3.33;2.10;;;18.20;98.20;;;;;;4971583;28;20031;-90
2022/07/16 07:08:43;;;;;;;7.53;2.10;;;18.20;96.60;;;;;;4972531;28;20030;-93
2022/07/16 07:11:11;;;;;;;5.07;2.00;;;18.30;97.80;;;;;;4972595;28;20027;-84
2022/07/16 07:13:38;;;;;;;5.18;1.98;;;18.40;97.70;;;;;;4974437;28;20026;-86
2022/07/16 07:16:06;;;;;;;2.72;1.88;;;18.50;96.30;;;;;;4971524;28;20050;-83
2022/07/16 07:18:33;;;;;;;7.35;2.10;;;18.50;93.50;;;;;;4970920;28;20030;-82
2022/07/16 07:20:59;;;;;;;4.70;1.90;;;18.60;94.20;;;;;;4971655;28;20019;-93
2022/07/16 07:23:25;;;;;;;3.22;1.80;;;18.70;95.50;;;;;;4972421;28;20502;-83
2022/07/16 07:25:51;;;;;;;6.63;2.33;;;18.70;92.70;;;;;;4980661;28;20027;-88
2022/07/16 07:28:16;;;;;;;6.45;1.98;;;18.80;93.90;;;;;;4954772;28;20042;-84
2022/07/16 07:30:42;;;;;;;4.05;1.90;;;18.80;91.90;;;;;;4966815;28;20085;-85
2022/07/16 07:33:08;;;;;;;6.45;2.03;;;19.00;93.70;;;;;;4975156;28;20054;-85
2022/07/16 07:35:34;;;;;;;4.05;1.90;;;19.10;91.80;;;;;;4990143;28;20041;-92
2022/07/16 07:37:59;;;;;;;3.22;1.77;;;19.10;90.20;;;;;;4979626;28;20338;-94
2022/07/16 07:40:26;;;;;;;4.90;2.28;;;19.20;90.60;;;;;;5004557;28;20110;-86
2022/07/16 07:42:52;;;;;;;3.80;1.65;;;19.30;90.00;;;;;;4981642;28;20039;-85
2022/07/16 07:45:18;;;;;;;5.07;1.65;;;19.40;90.60;;;;;;5002499;28;20046;-87
2022/07/16 07:47:43;;;;;;;4.10;1.52;;;19.50;90.70;;;;;;4980187;28;20034;-90
2022/07/16 07:50:09;;;;;;;5.03;1.70;;;19.60;78.40;;;;;;4974431;28;20391;-88
2022/07/16 07:52:35;;;;;;;3.90;1.60;;;19.60;77.50;;;;;;4976022;28;20038;-91
2022/07/16 07:55:01;;;;;;;2.60;1.83;;;19.70;73.90;;;;;;4979856;28;20038;-87
2022/07/16 07:57:27;;;;;;;3.78;1.30;;;19.70;70.10;;;;;;4988781;28;20110;-87
2022/07/16 07:59:56;;;;;;;3.92;1.60;;;19.80;80.60;;;;;;5030016;28;20021;-94
2022/07/16 08:02:22;;;;;;;3.92;2.10;;;20.00;78.80;;;;;;5015147;28;20058;-89
2022/07/16 08:04:47;;;;;;;1.92;1.42;;;20.10;67.20;;;;;;5016523;28;20037;-86
2022/07/16 08:07:15;;;;;;;3.13;1.70;;;20.20;68.30;;;;;;5002735;28;20038;-86
2022/07/16 08:09:41;;;;;;;2.05;1.58;;;20.20;64.60;;;;;;4968047;28;20034;-93
2022/07/16 08:12:07;;;;;;;6.65;1.55;;;20.20;68.70;;;;;;4971442;28;20486;-93
2022/07/16 08:14:39;;;;;;;3.42;1.48;;;20.40;65.90;;;;;;4973759;28;20578;-92
2022/07/16 08:17:04;;;;;;;4.07;1.70;;;20.40;60.40;;;;;;4980296;28;20023;-94
2022/07/16 08:19:33;;;;;;;2.90;1.40;;;20.50;63.70;;;;;;4977459;28;20034;-91
2022/07/16 08:22:00;;;;;;;3.55;2.05;;;20.70;64.90;;;;;;4976247;28;20030;-89
2022/07/16 08:27:10;;;;;;;2.40;1.60;;;21.10;65.30;;;;;;4974724;28;20115;-91
2022/07/16 08:29:36;;;;;;;2.58;1.80;;;21.20;60.40;;;;;;4971754;28;20128;-86
2022/07/16 08:32:02;;;;;;;3.45;1.50;;;21.30;54.00;;;;;;4970547;28;20491;-83
2022/07/16 08:34:27;;;;;;;3.67;1.73;;;21.30;53.00;;;;;;4990450;28;20026;-93
2022/07/16 08:36:53;;;;;;;4.30;1.50;;;21.40;56.00;;;;;;4984240;28;20760;-82
2022/07/16 08:39:20;;;;;;;4.40;1.50;;;21.40;55.10;;;;;;4961429;28;20027;-88
2022/07/16 08:41:46;;;;;;;1.95;1.38;;;21.60;55.70;;;;;;4957546;28;20031;-87
2022/07/16 08:44:13;;;;;;;2.53;1.67;;;21.70;58.40;;;;;;4969369;28;20090;-82
2022/07/16 08:46:40;;;;;;;3.33;1.60;;;21.60;53.00;;;;;;4970210;28;20114;-83
2022/07/16 08:49:06;;;;;;;3.20;1.70;;;21.70;54.40;;;;;;4985528;28;20042;-90
2022/07/16 08:51:34;;;;;;;3.60;1.58;;;21.80;51.90;;;;;;4970578;28;20031;-85
2022/07/16 08:54:21;;;;;;;1.67;1.40;;;21.80;53.30;;;;;;4969845;28;20062;-92
2022/07/16 08:56:48;;;;;;;3.13;1.42;;;22.00;57.80;;;;;;4951390;29;20122;-85
2022/07/16 08:59:14;;;;;;;2.67;1.80;;;22.20;57.00;;;;;;4952161;28;20031;-84
2022/07/16 09:01:41;;;;;;;3.72;1.70;;;22.30;52.40;;;;;;4965214;28;20026;-91
2022/07/16 09:04:07;;;;;;;3.40;1.70;;;22.30;48.90;;;;;;4970882;28;20085;-85
2022/07/16 09:06:33;;;;;;;5.25;1.42;;;22.30;49.20;;;;;;4970466;28;20495;-86
2022/07/16 09:08:59;;;;;;;5.00;1.60;;;22.20;52.10;;;;;;4970467;28;20057;-86
2022/07/16 09:11:27;;;;;;;7.47;1.45;;;22.60;55.10;;;;;;4970525;28;20027;-87
2022/07/16 09:14:04;;;;;;;2.60;1.70;;;22.90;57.70;;;;;;4976695;28;20089;-84
2022/07/16 09:16:33;;;;;;;3.10;1.60;;;23.10;57.50;;;;;;4979249;28;20026;-82
2022/07/16 09:19:23;;;;;;;4.60;1.70;;;23.30;55.90;;;;;;4970819;28;20034;-87
2022/07/16 09:22:08;;;;;;;3.55;1.70;;;23.50;55.20;;;;;;4970243;28;20046;-85
2022/07/16 09:24:48;;;;;;;2.85;1.85;;;23.40;49.30;;;;;;4970338;28;20031;-83
2022/07/16 09:27:20;;;;;;;5.40;1.80;;;23.60;55.90;;;;;;4971345;28;20038;-84
2022/07/16 09:29:54;;;;;;;6.78;1.80;;;23.60;51.30;;;;;;4971272;28;20069;-88
2022/07/16 09:32:32;;;;;;;5.78;1.50;;;23.50;46.30;;;;;;4970381;28;20027;-82
2022/07/16 09:35:10;;;;;;;3.25;1.67;;;23.60;52.50;;;;;;4985187;28;20031;-88
2022/07/16 09:37:58;;;;;;;2.65;1.67;;;23.80;51.10;;;;;;4970188;28;20023;-87
2022/07/16 09:40:45;;;;;;;2.15;1.52;;;23.60;50.10;;;;;;4970359;28;20054;-87
2022/07/16 09:43:13;;;;;;;2.90;1.70;;;23.40;50.00;;;;;;4969974;28;20039;-83
2022/07/16 09:45:41;;;;;;;5.88;1.60;;;23.50;50.20;;;;;;4967166;28;20019;-85
2022/07/16 09:48:31;;;;;;;3.72;1.80;;;23.70;52.50;;;;;;4969968;28;20034;-88
2022/07/16 09:51:20;;;;;;;4.38;1.52;;;23.70;46.30;;;;;;4957355;28;20526;-87
2022/07/16 09:53:48;;;;;;;5.13;1.83;;;23.90;48.50;;;;;;4969440;28;20189;-88
2022/07/16 09:56:25;;;;;;;2.72;1.70;;;23.70;45.40;;;;;;4969910;28;20407;-86
2022/07/16 09:58:53;;;;;;;;;;;23.90;51.90;;;;;;4968888;28;20054;-88
2022/07/16 10:01:20;;;;;;;8.52;1.80;;;23.90;47.50;;;;;;4969532;28;19919;-85
2022/07/16 10:03:47;;;;;;;4.60;2.20;;;24.00;49.10;;;;;;4974715;28;20033;-87
2022/07/16 10:06:13;;;;;;;5.32;1.70;;;24.10;51.50;;;;;;4970630;28;20395;-82
2022/07/16 10:08:40;;;;;;;6.43;1.77;;;24.30;48.60;;;;;;4965028;28;20042;-86
2022/07/16 10:11:06;;;;;;;3.95;1.77;;;24.40;45.70;;;;;;4968693;28;20513;-85
2022/07/16 10:13:34;;;;;;;2.42;1.63;;;24.60;49.10;;;;;;4964937;28;20033;-83
2022/07/16 10:16:00;;;;;;;3.00;1.70;;;24.70;50.30;;;;;;4971110;28;20030;-84
2022/07/16 10:18:38;;;;;;;6.82;1.90;;;24.90;47.90;;;;;;4950577;28;20487;-85
2022/07/16 10:21:05;;;;;;;3.72;1.77;;;25.00;46.70;;;;;;4953757;28;20035;-87
2022/07/16 10:23:33;;;;;;;4.90;1.70;;;24.90;44.60;;;;;;4959546;28;20038;-86
2022/07/16 10:26:09;;;;;;;;;;;24.60;42.90;;;;;;4959648;28;20027;-86
2022/07/16 10:28:44;;;;;;;4.80;1.98;;;24.80;46.70;;;;;;4960776;28;20010;-86
2022/07/16 10:31:33;;;;;;;3.28;1.80;;;24.90;43.00;;;;;;4958201;28;20039;-87
2022/07/16 10:34:14;;;;;;;3.72;1.75;;;24.60;41.90;;;;;;4963574;28;20023;-81
2022/07/16 10:36:55;;;;;;;3.80;1.80;;;24.80;41.00;;;;;;4958736;28;20093;-86
2022/07/16 10:39:24;;;;;;;6.53;1.80;;;24.90;44.70;;;;;;4961924;28;20407;-87
2022/07/16 10:41:54;;;;;;;2.90;1.77;;;25.00;43.60;;;;;;4956984;28;20027;-82
2022/07/16 10:44:22;;;;;;;4.70;1.85;;;25.10;43.40;;;;;;4956751;28;20031;-81
2022/07/16 10:46:53;;;;;;;1.95;1.63;;;25.20;42.20;;;;;;4956250;28;20065;-86
2022/07/16 10:49:20;;;;;;;7.18;1.80;;;25.30;43.50;;;;;;4951210;28;20035;-86
2022/07/16 10:51:58;;;;;;;3.78;1.75;;;25.40;40.80;;;;;;4952140;28;20038;-85
2022/07/16 10:54:35;;;;;;;3.65;1.88;;;25.50;40.40;;;;;;4969003;28;20050;-85
2022/07/16 10:57:11;;;;;;;3.87;1.77;;;25.40;37.00;;;;;;4973059;28;20023;-82
2022/07/16 10:59:40;;;;;;;4.43;1.73;;;25.20;39.30;;;;;;4972515;28;20023;-84
2022/07/16 11:02:08;;;;;;;5.80;1.90;;;25.40;38.90;;;;;;4970982;28;20027;-83
2022/07/16 11:04:42;;;;;;;5.18;1.90;;;25.30;38.20;;;;;;4966060;28;20027;-85
2022/07/16 11:07:20;;;;;;;6.15;1.95;;;25.40;40.30;;;;;;4972519;28;20026;-82
2022/07/16 11:09:52;;;;;;;2.70;1.83;;;25.70;40.80;;;;;;4972619;28;20506;-88
2022/07/16 11:12:25;;;;;;;3.42;1.70;;;25.80;38.30;;;;;;4955554;28;20039;-82
2022/07/16 11:14:53;;;;;;;2.55;1.90;;;25.70;38.90;;;;;;4970251;28;20030;-81
2022/07/16 11:17:21;;;;;;;;;;;25.60;37.70;;;;;;4971821;28;20069;-85
2022/07/16 11:19:49;;;;;;;5.32;1.70;;;25.70;37.10;;;;;;4971745;28;20175;-85
2022/07/16 11:22:20;;;;;;;4.63;2.00;;;25.70;35.90;;;;;;4969941;28;20030;-85
2022/07/16 11:24:54;;;;;;;5.78;1.70;;;25.80;38.40;;;;;;4984362;28;20035;-80
2022/07/16 11:27:28;;;;;;;3.40;1.85;;;26.00;39.90;;;;;;4975945;28;20026;-86
2022/07/16 11:30:07;;;;;;;5.97;2.10;;;26.00;39.30;;;;;;4991958;28;20022;-83
2022/07/16 11:32:32;;;;;;;4.68;2.05;;;25.90;35.70;;;;;;4983855;28;20046;-83
2022/07/16 11:35:05;;;;;;;3.85;1.67;;;25.60;34.80;;;;;;4987916;28;20062;-93
2022/07/16 11:37:51;;;;;;;4.03;1.70;;;25.60;36.30;;;;;;4971059;28;20054;-91
2022/07/16 11:40:17;;;;;;;5.82;1.90;;;25.90;37.10;;;;;;4980134;28;20114;-92
2022/07/16 11:42:42;;;;;;;8.52;1.90;;;26.20;37.20;;;;;;4972965;28;20150;-93
2022/07/16 11:45:10;;;;;;;3.00;1.65;;;26.40;37.90;;;;;;4973911;28;20051;-83
2022/07/16 11:47:41;;;;;;;6.03;2.10;;;26.50;37.50;;;;;;4972368;28;20022;-84
2022/07/16 11:50:07;;;;;;;5.40;1.75;;;26.10;33.10;;;;;;4965811;28;20035;-93
2022/07/16 11:52:33;;;;;;;3.33;1.92;;;26.10;34.30;;;;;;4972402;28;20061;-88
2022/07/16 11:54:58;;;;;;;5.70;1.70;;;26.20;35.60;;;;;;4969350;28;20400;-87
2022/07/16 11:57:25;;;;;;;3.28;1.83;;;26.30;36.10;;;;;;4961701;29;20023;-81
2022/07/16 11:59:53;;;;;;;5.00;1.80;;;26.40;36.10;;;;;;4966870;28;20034;-83
2022/07/16 12:02:27;;;;;;;6.35;1.77;;;26.10;34.90;;;;;;4962513;28;20038;-82
2022/07/16 12:04:56;;;;;;;3.38;2.00;;;26.20;35.30;;;;;;4957791;28;20035;-81
2022/07/16 12:07:25;;;;;;;4.55;2.00;;;26.10;34.10;;;;;;4972821;28;20506;-82
2022/07/16 12:09:52;;;;;;;2.70;1.73;;;26.30;35.70;;;;;;4976033;28;20062;-96
2022/07/16 12:12:18;;;;;;;;;;;26.30;34.80;;;;;;4980871;28;20112;-93
2022/07/16 12:15:05;;;;;;;3.40;1.70;;;26.40;34.70;;;;;;4983685;28;19898;-90
2022/07/16 12:17:37;;;;;;;3.70;1.95;;;26.50;35.90;;;;;;4977427;28;20023;-87
2022/07/16 12:20:19;;;;;;;3.85;2.00;;;26.60;36.20;;;;;;4979784;28;20089;-94
2022/07/16 12:23:01;;;;;;;8.45;2.13;;;26.60;35.30;;;;;;4980978;28;20476;-93
2022/07/16 12:25:34;;;;;;;3.47;1.70;;;26.60;35.60;;;;;;4978850;28;20023;-90
2022/07/16 12:28:12;;;;;;;8.18;2.00;;;26.70;35.80;;;;;;4981565;28;20055;-92
2022/07/16 12:30:51;;;;;;;5.82;1.90;;;26.70;35.80;;;;;;4981121;28;20031;-88
2022/07/16 12:33:27;;;;;;;3.70;1.63;;;26.90;36.70;;;;;;4972313;28;20034;-92
2022/07/16 12:36:01;;;;;;;4.28;2.25;;;27.00;36.30;;;;;;4966898;28;20027;-94
2022/07/16 12:38:58;;;;;;;4.25;1.70;;;27.00;34.30;;;;;;4965819;28;20125;-83
2022/07/16 12:41:26;;;;;;;5.57;2.00;;;27.10;34.30;;;;;;4965810;28;20022;-83
2022/07/16 12:44:02;;;;;;;5.18;1.83;;;27.00;34.00;;;;;;4964354;28;20039;-90
2022/07/16 12:46:34;;;;;;;4.13;1.90;;;26.70;34.20;;;;;;4961643;28;20035;-92
2022/07/16 12:49:03;;;;;;;3.55;1.80;;;26.70;34.40;;;;;;4966674;28;20015;-90
2022/07/16 12:51:32;;;;;;;3.83;1.98;;;26.90;35.10;;;;;;4968486;28;20027;-82
2022/07/16 12:54:00;;;;;;;5.75;2.25;;;27.10;34.90;;;;;;4967668;28;20102;-90
2022/07/16 12:59:11;;;;;;;3.13;1.88;;;27.00;35.00;;;;;;4975397;28;20066;-88
2022/07/16 13:01:37;;;;;;;7.45;1.85;;;27.10;35.40;;;;;;4970285;28;20794;-83